createdAt,value
2022-10-07T00:00:12.899Z,12.20
2022-10-07T00:02:40.728Z,12.20
2022-10-07T00:05:08.297Z,12.20
2022-10-07T00:07:37.637Z,12.20
2022-10-07T00:10:06.379Z,12.20
2022-10-07T00:12:33.591Z,12.20
2022-10-07T00:15:00.740Z,12.10
2022-10-07T00:17:28.072Z,12.40
2022-10-07T00:19:56.652Z,12.30
2022-10-07T00:22:23.846Z,12.30
2022-10-07T00:24:53.313Z,12.20
2022-10-07T00:27:20.435Z,12.20
2022-10-07T00:29:47.606Z,12.20
2022-10-07T00:32:17.863Z,12.20
2022-10-07T00:34:45.027Z,12.20
2022-10-07T00:37:12.191Z,12.10
2022-10-07T00:39:39.409Z,12.10
2022-10-07T00:42:08.873Z,12.10
2022-10-07T00:44:38.560Z,12.10
2022-10-07T00:47:19.487Z,12.00
2022-10-07T00:50:25.588Z,12.00
2022-10-07T00:52:57.819Z,12.00
2022-10-07T00:55:27.109Z,11.90
2022-10-07T00:57:57.410Z,11.90
2022-10-07T01:00:24.766Z,11.90
2022-10-07T01:02:56.273Z,11.90
2022-10-07T01:05:23.573Z,11.90
2022-10-07T01:07:51.275Z,11.80
2022-10-07T01:10:21.861Z,11.80
2022-10-07T01:13:17.989Z,11.80
2022-10-07T01:16:09.202Z,11.80
2022-10-07T01:19:13.149Z,11.70
2022-10-07T01:22:19.872Z,11.70
2022-10-07T01:24:52.810Z,11.60
2022-10-07T01:27:23.591Z,11.60
2022-10-07T01:30:07.319Z,11.60
2022-10-07T01:32:38.972Z,11.60
2022-10-07T01:35:11.345Z,11.50
2022-10-07T01:37:44.554Z,11.50
2022-10-07T01:40:29.151Z,11.50
2022-10-07T01:42:57.549Z,11.50
2022-10-07T01:45:29.056Z,11.50
2022-10-07T01:47:56.759Z,11.50
2022-10-07T01:50:27.571Z,11.50
2022-10-07T01:53:26.635Z,11.40
2022-10-07T01:56:12.874Z,11.40
2022-10-07T01:58:40.271Z,11.40
2022-10-07T02:01:22.816Z,11.30
2022-10-07T02:04:30.270Z,11.30
2022-10-07T02:07:03.144Z,11.30
2022-10-07T02:09:50.498Z,11.30
2022-10-07T02:12:27.235Z,11.30
2022-10-07T02:15:04.085Z,11.20
2022-10-07T02:17:36.251Z,11.20
2022-10-07T02:20:07.921Z,11.20
2022-10-07T02:22:35.890Z,11.20
2022-10-07T02:25:03.753Z,11.20
2022-10-07T02:27:35.928Z,11.20
2022-10-07T02:30:13.632Z,11.20
2022-10-07T02:32:50.688Z,11.20
2022-10-07T02:35:31.717Z,11.10
2022-10-07T02:38:02.731Z,11.10
2022-10-07T02:40:40.613Z,11.10
2022-10-07T02:43:59.330Z,11.10
2022-10-07T02:46:31.848Z,11.10
2022-10-07T02:49:06.533Z,11.10
2022-10-07T02:51:38.706Z,11.10
2022-10-07T02:54:06.560Z,11.00
2022-10-07T02:56:40.152Z,11.00
2022-10-07T02:59:09.841Z,11.00
2022-10-07T03:01:45.515Z,11.00
2022-10-07T03:04:13.580Z,11.00
2022-10-07T03:06:42.862Z,10.90
2022-10-07T03:09:10.954Z,10.90
2022-10-07T03:11:39.254Z,10.90
2022-10-07T03:14:06.691Z,10.90
2022-10-07T03:16:34.015Z,10.90
2022-10-07T03:19:03.764Z,10.90
2022-10-07T03:21:33.615Z,10.90
2022-10-07T03:24:04.901Z,10.80
2022-10-07T03:26:35.551Z,10.80
2022-10-07T03:29:03.674Z,10.80
2022-10-07T03:31:31.368Z,10.80
2022-10-07T03:33:59.330Z,10.80
2022-10-07T03:36:26.506Z,10.80
2022-10-07T03:38:55.666Z,10.80
2022-10-07T03:41:22.953Z,10.70
2022-10-07T03:43:50.237Z,10.70
2022-10-07T03:46:19.924Z,10.70
2022-10-07T03:48:47.120Z,10.70
2022-10-07T03:51:14.745Z,10.70
2022-10-07T03:53:41.961Z,10.70
2022-10-07T03:56:09.312Z,10.60
2022-10-07T03:58:36.510Z,10.60
2022-10-07T04:01:09.098Z,10.60
2022-10-07T04:03:36.316Z,10.60
2022-10-07T04:06:03.888Z,10.60
2022-10-07T04:08:32.921Z,10.60
2022-10-07T04:11:03.320Z,10.60
2022-10-07T04:13:31.687Z,10.60
2022-10-07T04:15:58.880Z,10.60
2022-10-07T04:18:26.108Z,10.60
2022-10-07T04:20:53.331Z,10.60
2022-10-07T04:23:20.662Z,10.60
2022-10-07T04:25:50.037Z,10.50
2022-10-07T04:28:26.349Z,10.60
2022-10-07T04:30:56.016Z,10.50
2022-10-07T04:33:24.292Z,10.60
2022-10-07T04:35:51.826Z,10.60
2022-10-07T04:38:19.253Z,10.60
2022-10-07T04:40:51.914Z,10.50
2022-10-07T04:43:23.172Z,10.50
2022-10-07T04:45:55.039Z,10.50
2022-10-07T04:48:23.849Z,10.50
2022-10-07T04:50:53.673Z,10.50
2022-10-07T04:53:21.307Z,10.50
2022-10-07T04:55:51.762Z,10.40
2022-10-07T04:58:20.315Z,10.40
2022-10-07T05:00:49.854Z,10.40
2022-10-07T05:03:18.890Z,10.40
2022-10-07T05:05:49.002Z,10.40
2022-10-07T05:08:18.625Z,10.40
2022-10-07T05:10:46.371Z,10.40
2022-10-07T05:13:16.857Z,10.40
2022-10-07T05:16:01.474Z,10.40
2022-10-07T05:18:33.407Z,10.40
2022-10-07T05:21:07.808Z,10.40
2022-10-07T05:23:38.073Z,10.40
2022-10-07T05:26:08.132Z,10.50
2022-10-07T05:28:36.345Z,10.50
2022-10-07T05:31:10.330Z,10.50
2022-10-07T05:33:38.216Z,10.50
2022-10-07T05:36:07.927Z,10.50
2022-10-07T05:38:35.634Z,10.50
2022-10-07T05:41:05.340Z,10.50
2022-10-07T05:43:35.490Z,10.50
2022-10-07T05:46:07.963Z,10.50
2022-10-07T05:48:39.306Z,10.50
2022-10-07T05:51:09.710Z,10.40
2022-10-07T05:53:41.375Z,10.40
2022-10-07T05:56:11.041Z,10.40
2022-10-07T05:58:40.924Z,10.40
2022-10-07T06:01:14.557Z,10.40
2022-10-07T06:03:42.865Z,10.40
2022-10-07T06:06:10.595Z,10.40
2022-10-07T06:08:37.861Z,10.50
2022-10-07T06:11:25.469Z,10.50
2022-10-07T06:13:54.456Z,10.50
2022-10-07T06:16:24.452Z,10.50
2022-10-07T06:18:55.195Z,10.50
2022-10-07T06:21:28.063Z,10.50
2022-10-07T06:23:58.557Z,10.50
2022-10-07T06:26:30.315Z,10.60
2022-10-07T06:28:57.518Z,10.60
2022-10-07T06:31:25.857Z,10.60
2022-10-07T06:33:53.406Z,10.60
2022-10-07T06:36:20.826Z,10.70
2022-10-07T06:38:50.180Z,10.70
2022-10-07T06:41:18.149Z,10.70
2022-10-07T06:43:47.973Z,10.70
2022-10-07T06:46:17.968Z,10.80
2022-10-07T06:48:46.653Z,10.80
2022-10-07T06:51:16.423Z,10.80
2022-10-07T06:53:44.695Z,10.90
2022-10-07T06:56:13.998Z,10.90
2022-10-07T06:58:42.588Z,11.00
2022-10-07T07:01:10.930Z,11.00
2022-10-07T07:03:38.665Z,11.10
2022-10-07T07:06:08.062Z,11.10
2022-10-07T07:08:35.587Z,11.10
2022-10-07T07:11:27.050Z,11.20
2022-10-07T07:13:54.771Z,11.20
2022-10-07T07:16:24.298Z,11.30
2022-10-07T07:19:02.699Z,11.30
2022-10-07T07:21:30.269Z,11.40
2022-10-07T07:23:58.841Z,11.50
2022-10-07T07:26:28.197Z,11.50
2022-10-07T07:29:03.761Z,11.50
2022-10-07T07:31:33.671Z,11.60
2022-10-07T07:34:04.270Z,11.60
2022-10-07T07:36:33.229Z,11.70
2022-10-07T07:39:08.648Z,11.70
2022-10-07T07:41:41.328Z,11.80
2022-10-07T07:44:13.802Z,11.90
2022-10-07T07:46:44.039Z,11.90
2022-10-07T07:49:12.761Z,12.00
2022-10-07T07:51:42.540Z,12.00
2022-10-07T07:54:12.298Z,12.10
2022-10-07T07:56:39.865Z,12.10
2022-10-07T07:59:08.190Z,12.20
2022-10-07T08:01:36.017Z,12.20
2022-10-07T08:04:04.108Z,12.30
2022-10-07T08:06:32.617Z,12.40
2022-10-07T08:09:02.120Z,12.40
2022-10-07T08:11:29.846Z,12.50
2022-10-07T08:14:00.478Z,12.50
2022-10-07T08:16:29.330Z,12.60
2022-10-07T08:18:58.164Z,12.70
2022-10-07T08:21:27.839Z,12.70
2022-10-07T08:23:57.378Z,12.80
2022-10-07T08:26:31.119Z,12.80
2022-10-07T08:28:58.621Z,12.90
2022-10-07T08:31:29.314Z,13.00
2022-10-07T08:33:59.391Z,13.10
2022-10-07T08:36:29.371Z,13.10
2022-10-07T08:38:59.199Z,13.20
2022-10-07T08:41:26.390Z,13.30
2022-10-07T08:43:53.599Z,13.30
2022-10-07T08:46:29.152Z,13.40
2022-10-07T08:49:00.903Z,13.50
2022-10-07T08:51:41.892Z,13.60
2022-10-07T08:54:14.219Z,13.60
2022-10-07T08:56:44.265Z,13.60
2022-10-07T08:59:27.461Z,13.70
2022-10-07T09:02:31.390Z,13.80
2022-10-07T09:05:18.981Z,13.90
2022-10-07T09:07:50.208Z,14.00
2022-10-07T09:10:38.183Z,14.00
2022-10-07T09:13:24.993Z,14.10
2022-10-07T09:16:13.905Z,14.20
2022-10-07T09:19:28.810Z,14.30
2022-10-07T09:22:01.149Z,14.40
2022-10-07T09:24:31.281Z,14.40
2022-10-07T09:27:01.066Z,14.50
2022-10-07T09:29:30.686Z,14.50
2022-10-07T09:32:00.883Z,14.60
2022-10-07T09:34:30.838Z,14.70
2022-10-07T09:37:19.627Z,14.70
2022-10-07T09:39:52.268Z,14.80
2022-10-07T09:42:34.066Z,14.90
2022-10-07T09:45:06.096Z,14.90
2022-10-07T09:47:40.307Z,15.00
2022-10-07T09:50:41.097Z,15.10
2022-10-07T09:53:24.107Z,15.20
2022-10-07T09:55:54.094Z,15.20
2022-10-07T09:58:31.881Z,15.30
2022-10-07T10:01:03.130Z,15.40
2022-10-07T10:03:32.700Z,15.40
2022-10-07T10:06:06.576Z,15.50
2022-10-07T10:08:38.099Z,15.60
2022-10-07T10:11:25.908Z,15.70
2022-10-07T10:13:53.197Z,15.80
2022-10-07T10:16:40.482Z,15.80
2022-10-07T10:19:27.651Z,15.90
2022-10-07T10:21:57.010Z,16.00
2022-10-07T10:24:48.866Z,16.00
2022-10-07T10:27:36.431Z,16.10
2022-10-07T10:30:14.938Z,16.20
2022-10-07T10:32:51.208Z,16.30
2022-10-07T10:35:34.627Z,16.30
2022-10-07T10:38:33.236Z,16.40
2022-10-07T10:41:28.835Z,16.40
2022-10-07T10:43:59.051Z,16.50
2022-10-07T10:46:39.469Z,16.50
2022-10-07T10:49:16.012Z,16.60
2022-10-07T10:52:15.247Z,16.60
2022-10-07T10:55:04.092Z,16.70
2022-10-07T10:57:49.150Z,16.70
2022-10-07T11:00:21.969Z,16.80
2022-10-07T11:03:05.539Z,16.80
2022-10-07T11:05:33.196Z,16.80
2022-10-07T11:08:26.534Z,16.90
2022-10-07T11:11:06.575Z,16.90
2022-10-07T11:13:54.257Z,16.90
2022-10-07T11:16:30.980Z,17.00
2022-10-07T11:19:00.953Z,17.10
2022-10-07T11:21:40.295Z,17.20
2022-10-07T11:24:15.326Z,17.20
2022-10-07T11:27:04.485Z,17.30
2022-10-07T11:29:47.966Z,17.30
2022-10-07T11:32:39.934Z,17.40
2022-10-07T11:35:23.847Z,17.40
2022-10-07T11:38:12.278Z,17.40
2022-10-07T11:41:13.533Z,17.50
2022-10-07T11:43:53.787Z,17.50
2022-10-07T11:46:34.017Z,17.60
2022-10-07T11:49:18.083Z,17.60
2022-10-07T11:52:18.332Z,17.70
2022-10-07T11:54:59.474Z,17.70
2022-10-07T11:57:33.902Z,17.70
2022-10-07T12:00:08.149Z,17.80
2022-10-07T12:02:39.776Z,17.80
2022-10-07T12:05:26.146Z,17.80
2022-10-07T12:07:59.565Z,17.90
2022-10-07T12:10:32.010Z,17.90
2022-10-07T12:13:21.900Z,17.90
2022-10-07T12:15:50.383Z,18.00
2022-10-07T12:18:24.144Z,18.00
2022-10-07T12:20:51.358Z,18.00
2022-10-07T12:23:28.431Z,18.10
2022-10-07T12:26:03.089Z,18.10
2022-10-07T12:28:40.357Z,18.20
2022-10-07T12:31:16.713Z,18.20
2022-10-07T12:33:47.017Z,18.20
2022-10-07T12:36:23.755Z,18.20
2022-10-07T12:39:00.705Z,18.30
2022-10-07T12:41:40.286Z,18.30
2022-10-07T12:44:19.246Z,18.40
2022-10-07T12:46:49.121Z,18.40
2022-10-07T12:49:34.442Z,18.40
2022-10-07T12:52:06.829Z,18.40
2022-10-07T12:54:49.912Z,18.40
2022-10-07T12:57:23.914Z,18.40
2022-10-07T12:59:57.785Z,18.50
2022-10-07T13:03:03.467Z,18.50
2022-10-07T13:05:39.642Z,18.60
2022-10-07T13:08:25.624Z,18.60
2022-10-07T13:11:23.895Z,18.60
2022-10-07T13:14:22.892Z,18.60
2022-10-07T13:17:02.345Z,18.60
2022-10-07T13:19:49.777Z,18.60
2022-10-07T13:22:18.769Z,18.60
2022-10-07T13:24:55.158Z,18.60
2022-10-07T13:27:32.073Z,18.60
2022-10-07T13:30:01.512Z,18.60
2022-10-07T13:32:30.947Z,18.60
2022-10-07T13:34:59.799Z,18.60
2022-10-07T13:37:38.111Z,18.70
2022-10-07T13:40:35.432Z,18.70
2022-10-07T13:43:07.075Z,18.80
2022-10-07T13:45:43.634Z,18.80
2022-10-07T13:48:28.163Z,18.80
2022-10-07T13:50:58.766Z,18.80
2022-10-07T13:53:31.706Z,18.80
2022-10-07T13:56:19.405Z,18.90
2022-10-07T13:58:46.863Z,18.90
2022-10-07T14:01:15.339Z,18.90
2022-10-07T14:04:01.791Z,18.90
2022-10-07T14:06:56.538Z,18.90
2022-10-07T14:09:31.473Z,18.90
2022-10-07T14:12:12.793Z,18.80
2022-10-07T14:14:42.445Z,18.90
2022-10-07T14:17:38.724Z,18.80
2022-10-07T14:20:18.885Z,18.80
2022-10-07T14:22:51.687Z,18.80
2022-10-07T14:25:23.750Z,18.80
2022-10-07T14:28:14.518Z,18.80
2022-10-07T14:31:00.676Z,18.80
2022-10-07T14:34:03.305Z,18.90
2022-10-07T14:36:30.573Z,18.90
2022-10-07T14:39:03.505Z,18.90
2022-10-07T14:41:33.701Z,18.90
2022-10-07T14:44:02.795Z,19.00
2022-10-07T14:46:30.308Z,18.90
2022-10-07T14:48:57.611Z,19.00
2022-10-07T14:51:29.502Z,19.00
2022-10-07T14:54:03.002Z,19.00
2022-10-07T14:56:35.458Z,19.00
2022-10-07T14:59:10.579Z,19.00
2022-10-07T15:01:37.807Z,19.00
2022-10-07T15:04:05.910Z,19.00
2022-10-07T15:06:37.063Z,19.00
2022-10-07T15:09:04.555Z,19.10
2022-10-07T15:11:31.746Z,19.10
2022-10-07T15:13:58.962Z,19.10
2022-10-07T15:16:27.970Z,19.10
2022-10-07T15:18:55.540Z,19.10
2022-10-07T15:21:25.084Z,19.20
2022-10-07T15:23:56.605Z,19.30
2022-10-07T15:26:25.303Z,19.20
2022-10-07T15:28:55.264Z,19.20
2022-10-07T15:31:26.102Z,19.20
2022-10-07T15:33:57.188Z,19.20
2022-10-07T15:36:26.548Z,19.20
2022-10-07T15:38:54.359Z,19.20
2022-10-07T15:41:42.183Z,19.20
2022-10-07T15:44:24.571Z,19.30
2022-10-07T15:46:54.631Z,19.30
2022-10-07T15:49:22.207Z,19.30
2022-10-07T15:51:49.730Z,19.30
2022-10-07T15:54:17.553Z,19.30
2022-10-07T15:56:45.301Z,19.30
2022-10-07T15:59:12.607Z,19.30
2022-10-07T16:01:39.765Z,19.30
2022-10-07T16:04:12.042Z,19.40
2022-10-07T16:06:39.622Z,19.40
2022-10-07T16:09:07.350Z,19.30
2022-10-07T16:11:35.017Z,19.30
2022-10-07T16:14:02.929Z,19.30
2022-10-07T16:16:33.812Z,19.30
2022-10-07T16:19:04.874Z,19.30
2022-10-07T16:21:38.158Z,19.20
2022-10-07T16:24:16.606Z,19.20
2022-10-07T16:26:44.744Z,19.20
2022-10-07T16:29:40.693Z,19.10
2022-10-07T16:32:12.818Z,19.00
2022-10-07T16:34:43.504Z,19.00
2022-10-07T16:37:11.363Z,18.90
2022-10-07T16:39:38.714Z,18.90
2022-10-07T16:42:05.949Z,18.80
2022-10-07T16:44:33.141Z,18.80
2022-10-07T16:47:01.220Z,18.80
2022-10-07T16:49:30.314Z,18.70
2022-10-07T16:51:58.360Z,18.60
2022-10-07T16:54:28.486Z,18.60
2022-10-07T16:56:58.629Z,18.50
2022-10-07T16:59:26.156Z,18.50
2022-10-07T17:01:55.684Z,18.40
2022-10-07T17:04:26.941Z,18.40
2022-10-07T17:06:56.117Z,18.30
2022-10-07T17:09:25.203Z,18.20
2022-10-07T17:11:54.475Z,18.20
2022-10-07T17:14:24.966Z,18.10
2022-10-07T17:16:55.936Z,18.10
2022-10-07T17:19:25.555Z,18.00
2022-10-07T17:21:54.445Z,18.00
2022-10-07T17:24:22.832Z,17.90
2022-10-07T17:26:52.568Z,17.80
2022-10-07T17:29:21.425Z,17.80
2022-10-07T17:31:50.544Z,17.70
2022-10-07T17:34:20.109Z,17.60
2022-10-07T17:36:48.131Z,17.60
2022-10-07T17:39:16.164Z,17.50
2022-10-07T17:41:43.347Z,17.40
2022-10-07T17:44:12.300Z,17.30
2022-10-07T17:46:42.479Z,17.30
2022-10-07T17:49:13.426Z,17.20
2022-10-07T17:51:42.680Z,17.20
2022-10-07T17:54:12.015Z,17.10
2022-10-07T17:56:39.567Z,17.10
2022-10-07T17:59:06.929Z,17.10
2022-10-07T18:01:35.539Z,17.00
2022-10-07T18:04:09.551Z,17.00
2022-10-07T18:06:38.333Z,16.90
2022-10-07T18:09:09.828Z,16.80
2022-10-07T18:11:55.500Z,16.80
2022-10-07T18:14:41.941Z,16.80
2022-10-07T18:17:10.987Z,16.70
2022-10-07T18:19:39.772Z,16.60
2022-10-07T18:22:08.577Z,16.50
2022-10-07T18:24:35.997Z,16.50
2022-10-07T18:27:03.575Z,16.40
2022-10-07T18:29:32.965Z,16.40
2022-10-07T18:32:00.963Z,16.30
2022-10-07T18:34:32.478Z,16.30
2022-10-07T18:37:00.555Z,16.20
2022-10-07T18:39:29.451Z,16.20
2022-10-07T18:41:56.945Z,16.20
2022-10-07T18:44:24.296Z,16.10
2022-10-07T18:46:51.739Z,16.00
2022-10-07T18:49:23.557Z,16.00
2022-10-07T18:51:51.383Z,16.00
2022-10-07T18:54:21.117Z,15.90
2022-10-07T18:56:49.568Z,15.90
2022-10-07T18:59:18.253Z,15.80
2022-10-07T19:01:50.080Z,15.80
2022-10-07T19:04:18.673Z,15.80
2022-10-07T19:06:46.807Z,15.70
2022-10-07T19:09:16.635Z,15.60
2022-10-07T19:11:43.972Z,15.60
2022-10-07T19:14:11.611Z,15.60
2022-10-07T19:16:49.391Z,15.50
2022-10-07T19:19:19.653Z,15.50
2022-10-07T19:21:51.421Z,15.40
2022-10-07T19:24:19.377Z,15.40
2022-10-07T19:26:48.955Z,15.40
2022-10-07T19:29:17.973Z,15.30
2022-10-07T19:31:50.023Z,15.30
2022-10-07T19:34:20.686Z,15.30
2022-10-07T19:36:50.438Z,15.30
2022-10-07T19:39:22.277Z,15.30
2022-10-07T19:41:51.096Z,15.30
2022-10-07T19:44:19.047Z,15.20
2022-10-07T19:46:50.230Z,15.20
2022-10-07T19:49:17.511Z,15.20
2022-10-07T19:51:45.582Z,15.20
2022-10-07T19:54:13.159Z,15.20
2022-10-07T19:56:40.984Z,15.20
2022-10-07T19:59:13.025Z,15.20
2022-10-07T20:01:47.360Z,15.10
2022-10-07T20:04:18.704Z,15.10
2022-10-07T20:06:46.045Z,15.10
2022-10-07T20:09:16.155Z,15.10
2022-10-07T20:11:44.176Z,15.10
2022-10-07T20:14:11.592Z,15.10
2022-10-07T20:16:39.501Z,15.10
2022-10-07T20:19:10.983Z,15.00
2022-10-07T20:21:39.197Z,15.00
2022-10-07T20:24:08.481Z,15.00
2022-10-07T20:26:38.334Z,15.00
2022-10-07T20:29:07.679Z,15.00
2022-10-07T20:31:38.657Z,15.00
2022-10-07T20:34:07.806Z,15.00
2022-10-07T20:36:37.365Z,14.90
2022-10-07T20:39:35.513Z,14.90
2022-10-07T20:42:21.626Z,14.90
2022-10-07T20:44:52.037Z,14.90
2022-10-07T20:47:20.746Z,14.80
2022-10-07T20:49:51.466Z,14.80
2022-10-07T20:52:21.649Z,14.80
2022-10-07T20:54:48.892Z,14.80
2022-10-07T20:57:19.016Z,14.80
2022-10-07T20:59:48.738Z,14.80
2022-10-07T21:02:17.767Z,14.80
2022-10-07T21:04:48.656Z,14.80
2022-10-07T21:07:19.738Z,14.80
2022-10-07T21:09:47.331Z,14.70
2022-10-07T21:12:18.082Z,14.70
2022-10-07T21:14:48.598Z,14.70
2022-10-07T21:17:16.848Z,14.70
2022-10-07T21:19:44.175Z,14.70
2022-10-07T21:22:11.609Z,14.60
2022-10-07T21:24:38.826Z,14.60
2022-10-07T21:27:07.417Z,14.60
2022-10-07T21:29:39.193Z,14.60
2022-10-07T21:32:10.008Z,14.60
2022-10-07T21:34:37.937Z,14.50
2022-10-07T21:37:05.178Z,14.50
2022-10-07T21:39:34.527Z,14.50
2022-10-07T21:42:01.930Z,14.50
2022-10-07T21:44:33.474Z,14.50
2022-10-07T21:47:00.851Z,14.40
2022-10-07T21:49:30.773Z,14.50
2022-10-07T21:51:58.034Z,14.40
2022-10-07T21:54:26.168Z,14.40
2022-10-07T21:56:55.657Z,14.40
2022-10-07T21:59:22.843Z,14.40
2022-10-07T22:01:50.175Z,14.40
2022-10-07T22:04:18.977Z,14.40
2022-10-07T22:07:04.986Z,14.40
2022-10-07T22:09:32.464Z,14.40
2022-10-07T22:11:59.686Z,14.40
2022-10-07T22:14:27.709Z,14.40
2022-10-07T22:16:55.102Z,14.40
2022-10-07T22:19:23.051Z,14.40
2022-10-07T22:21:52.402Z,14.40
2022-10-07T22:24:19.543Z,14.40
2022-10-07T22:26:51.360Z,14.40
2022-10-07T22:29:21.687Z,14.40
2022-10-07T22:31:49.344Z,14.40
2022-10-07T22:34:35.411Z,14.30
2022-10-07T22:37:03.183Z,14.30
2022-10-07T22:39:31.130Z,14.30
2022-10-07T22:41:59.073Z,14.30
2022-10-07T22:44:28.222Z,14.30
2022-10-07T22:46:56.985Z,14.20
2022-10-07T22:49:29.328Z,14.20
2022-10-07T22:51:58.390Z,14.20
2022-10-07T22:54:28.410Z,14.20
2022-10-07T22:57:00.532Z,14.20
2022-10-07T22:59:27.687Z,14.20
2022-10-07T23:01:54.829Z,14.10
2022-10-07T23:04:22.041Z,14.10
2022-10-07T23:06:49.358Z,14.10
2022-10-07T23:09:16.519Z,14.10
2022-10-07T23:11:43.668Z,14.10
2022-10-07T23:14:11.965Z,14.00
2022-10-07T23:16:39.160Z,14.10
2022-10-07T23:19:06.369Z,14.00
2022-10-07T23:21:34.826Z,14.00
2022-10-07T23:24:07.777Z,13.90
2022-10-07T23:26:36.596Z,13.90
2022-10-07T23:29:04.625Z,13.90
2022-10-07T23:31:32.744Z,13.90
2022-10-07T23:34:04.913Z,13.90
2022-10-07T23:36:33.283Z,13.90
2022-10-07T23:39:01.342Z,13.90
2022-10-07T23:41:30.181Z,13.80
2022-10-07T23:43:59.235Z,13.80
2022-10-07T23:46:27.772Z,13.80
2022-10-07T23:48:56.124Z,13.80
2022-10-07T23:51:25.381Z,13.80
2022-10-07T23:53:52.533Z,13.80
2022-10-07T23:56:19.692Z,13.80
2022-10-07T23:58:47.216Z,13.80
